Time;durP1;ratioP1;P1;durP2;ratioP2;P2;SDS_P1;SDS_P2;PMS_P1;PMS_P2;Temp;Humidity;BMP_temperature;BMP_pressure;BME280_temperature;BME280_humidity;BME280_pressure;Samples;Min_cycle;Max_cycle;Signal;HPM_P1;HPM_P2
2022/08/05 00:01:57;;;;;;;8.43;5.50;;;;;;;19.35;79.94;101441.50;5024178;28;20112;-77
2022/08/05 00:04:23;;;;;;;10.38;5.85;;;;;;;19.29;80.68;101440.34;5029095;28;20582;-78
2022/08/05 00:06:48;;;;;;;9.48;5.13;;;;;;;19.48;79.58;101448.88;5034137;28;20083;-77
2022/08/05 00:09:14;;;;;;;7.40;5.00;;;;;;;19.33;79.57;101440.84;5038076;28;20461;-77
2022/08/05 00:11:39;;;;;;;9.60;5.00;;;;;;;19.28;79.83;101432.66;5022572;28;20079;-77
2022/08/05 00:14:04;;;;;;;7.88;4.85;;;;;;;19.33;79.27;101435.59;5017488;28;20029;-77
2022/08/05 00:16:30;;;;;;;8.48;4.53;;;;;;;19.27;79.97;101444.16;5032905;28;20054;-78
2022/08/05 00:18:55;;;;;;;8.50;4.60;;;;;;;19.34;79.68;101431.97;5022028;28;20496;-77
2022/08/05 00:21:20;;;;;;;10.13;4.97;;;;;;;19.21;79.89;101415.88;5005173;28;20029;-77
2022/08/05 00:23:47;;;;;;;8.75;4.40;;;;;;;19.25;79.65;101422.44;5024071;28;20032;-77
2022/08/05 00:26:13;;;;;;;7.78;4.20;;;;;;;19.21;79.45;101419.34;5006285;28;20021;-77
2022/08/05 00:28:39;;;;;;;9.40;4.65;;;;;;;19.18;79.14;101419.66;5026116;28;20024;-77
2022/08/05 00:31:05;;;;;;;12.25;4.82;;;;;;;19.18;79.74;101429.38;5028536;28;20055;-77
2022/08/05 00:33:31;;;;;;;9.30;4.35;;;;;;;19.13;79.58;101411.44;5011013;28;20469;-77
2022/08/05 00:35:56;;;;;;;9.18;4.32;;;;;;;19.19;79.58;101428.38;5039503;28;20056;-78
2022/08/05 00:38:22;;;;;;;9.52;3.90;;;;;;;19.12;80.11;101430.03;5029561;28;20028;-78
2022/08/05 00:40:53;;;;;;;10.30;4.10;;;;;;;19.15;79.23;101448.09;5033826;28;20020;-77
2022/08/05 00:43:19;;;;;;;9.35;4.07;;;;;;;19.28;79.61;101448.41;5010486;28;20075;-78
2022/08/05 00:45:46;;;;;;;9.25;3.83;;;;;;;19.22;78.57;101449.09;5017088;28;20563;-77
2022/08/05 00:48:14;;;;;;;8.85;3.78;;;;;;;19.17;79.30;101451.41;5021522;28;20029;-77
2022/08/05 00:50:41;;;;;;;8.10;3.80;;;;;;;19.20;78.66;101456.31;5010962;28;20433;-77
2022/08/05 00:53:07;;;;;;;9.07;4.18;;;;;;;19.13;79.09;101465.84;5010594;28;20457;-77
2022/08/05 00:55:32;;;;;;;8.90;3.70;;;;;;;19.20;77.98;101462.38;5014254;28;20047;-77
2022/08/05 00:57:58;;;;;;;9.77;4.25;;;;;;;19.10;77.93;101451.25;5049035;28;20437;-78
2022/08/05 01:00:23;;;;;;;9.88;4.10;;;;;;;19.21;78.14;101442.16;5029232;28;20040;-77
2022/08/05 01:02:49;;;;;;;8.82;4.32;;;;;;;19.15;77.95;101442.84;5024415;28;20381;-78
2022/08/05 01:05:14;;;;;;;10.32;4.03;;;;;;;19.10;78.42;101436.28;5019052;28;20064;-77
2022/08/05 01:07:41;;;;;;;9.73;3.90;;;;;;;19.12;78.67;101443.19;5022979;28;20660;-77
2022/08/05 01:10:12;;;;;;;9.88;4.45;;;;;;;18.96;79.22;101434.31;5029882;28;20458;-77
2022/08/05 01:12:43;;;;;;;11.93;4.38;;;;;;;19.03;78.24;101445.78;5019481;28;20037;-77
2022/08/05 01:15:11;;;;;;;11.02;4.57;;;;;;;18.98;78.56;101458.66;5030495;28;20040;-78
2022/08/05 01:17:48;;;;;;;8.68;4.38;;;;;;;18.94;78.24;101457.31;5010404;28;20148;-77
2022/08/05 01:20:48;;;;;;;9.63;4.68;;;;;;;19.01;78.16;101458.28;5017845;28;20065;-77
2022/08/05 01:23:38;;;;;;;8.73;4.20;;;;;;;19.00;78.00;101461.09;4983111;28;20037;-77
2022/08/05 01:26:27;;;;;;;7.78;4.25;;;;;;;18.86;78.52;101459.09;5024219;28;20546;-78
2022/08/05 01:28:59;;;;;;;8.63;4.50;;;;;;;18.89;78.20;101469.31;5027425;28;20118;-77
2022/08/05 01:31:46;;;;;;;11.82;4.82;;;;;;;18.89;78.22;101478.00;5039200;28;20112;-77
2022/08/05 01:34:21;;;;;;;9.10;4.67;;;;;;;18.88;79.05;101489.53;5026479;28;20029;-77
2022/08/05 01:36:52;;;;;;;10.93;4.97;;;;;;;18.84;77.97;101473.25;5001764;28;20036;-77
2022/08/05 01:39:19;;;;;;;10.45;4.95;;;;;;;18.74;78.69;101479.63;5043828;28;20025;-77
2022/08/05 01:41:46;;;;;;;11.80;4.80;;;;;;;18.83;78.44;101491.81;5027098;28;20452;-77
2022/08/05 01:44:13;;;;;;;11.45;4.50;;;;;;;18.82;78.33;101498.88;5028123;28;20404;-77
2022/08/05 01:46:39;;;;;;;10.82;5.13;;;;;;;18.81;78.20;101501.69;5027761;28;20029;-77
2022/08/05 01:49:07;;;;;;;9.27;4.90;;;;;;;18.78;78.18;101496.72;5026821;28;20029;-77
2022/08/05 01:51:34;;;;;;;11.18;5.22;;;;;;;18.74;78.10;101484.88;5029074;28;20021;-77
2022/08/05 01:54:03;;;;;;;10.50;5.20;;;;;;;18.77;78.18;101477.50;5011991;28;20104;-77
2022/08/05 01:56:30;;;;;;;;;;;;;;;19.00;76.81;101475.06;5019635;28;20033;-77
2022/08/05 01:58:56;;;;;;;12.30;5.20;;;;;;;18.75;78.00;101481.28;5028483;28;20503;-77
2022/08/05 02:01:22;;;;;;;10.77;4.95;;;;;;;18.69;78.20;101489.81;5026395;28;20033;-77
2022/08/05 02:03:50;;;;;;;10.88;5.35;;;;;;;18.58;78.94;101478.63;5010120;28;20053;-77
2022/08/05 02:06:16;;;;;;;10.43;5.40;;;;;;;18.57;78.32;101482.19;5027533;28;20034;-77
2022/08/05 02:08:42;;;;;;;9.73;4.90;;;;;;;18.58;79.89;101489.13;5037915;28;20485;-77
2022/08/05 02:11:10;;;;;;;12.23;4.70;;;;;;;18.52;79.08;101484.50;5026959;28;20037;-77
2022/08/05 02:13:54;;;;;;;;;;;;;;;18.82;77.26;101479.66;5019827;28;20037;-76
2022/08/05 02:16:21;;;;;;;8.73;4.68;;;;;;;18.65;78.49;101476.16;5006186;28;19964;-78
2022/08/05 02:18:51;;;;;;;10.15;4.53;;;;;;;18.56;78.72;101477.13;5016465;28;20038;-77
2022/08/05 02:22:01;;;;;;;12.88;4.72;;;;;;;18.78;77.96;101483.59;5026888;28;20029;-77
2022/08/05 02:24:35;;;;;;;10.38;4.80;;;;;;;18.60;78.99;101480.25;4949893;28;20031;-77
2022/08/05 02:27:03;;;;;;;11.43;4.75;;;;;;;18.63;78.19;101480.72;4969533;28;20438;-77
2022/08/05 02:29:33;;;;;;;10.20;4.70;;;;;;;18.55;78.56;101473.66;4966398;28;20065;-77
2022/08/05 02:31:59;;;;;;;10.52;4.45;;;;;;;18.55;78.97;101473.66;4979756;28;20065;-77
2022/08/05 02:34:28;;;;;;;8.50;4.47;;;;;;;18.53;79.13;101470.38;4982427;28;20038;-76
2022/08/05 02:36:57;;;;;;;10.43;4.88;;;;;;;18.58;78.83;101447.09;4980411;28;20045;-77
2022/08/05 02:39:25;;;;;;;10.07;4.75;;;;;;;18.44;79.27;101429.31;4961086;28;20062;-77
2022/08/05 02:41:52;;;;;;;8.50;4.60;;;;;;;18.44;79.45;101447.72;4973014;28;20070;-77
2022/08/05 02:44:23;;;;;;;10.80;4.97;;;;;;;18.41;78.91;101458.56;4973838;28;20072;-77
2022/08/05 02:46:49;;;;;;;10.75;4.70;;;;;;;18.43;79.29;101453.13;4952215;28;20035;-77
2022/08/05 02:49:15;;;;;;;10.55;4.70;;;;;;;18.45;79.54;101461.66;4970755;28;20111;-77
2022/08/05 02:51:42;;;;;;;9.05;4.63;;;;;;;18.43;79.17;101472.34;4947141;28;20158;-77
2022/08/05 02:54:09;;;;;;;10.55;4.57;;;;;;;18.44;79.31;101476.59;4977377;28;20474;-77
2022/08/05 02:56:35;;;;;;;9.70;4.97;;;;;;;18.41;79.16;101482.19;5037883;28;20029;-77
2022/08/05 02:59:00;;;;;;;8.88;4.30;;;;;;;18.44;79.26;101471.34;5031543;28;20119;-78
2022/08/05 03:01:27;;;;;;;9.23;4.75;;;;;;;18.36;79.44;101463.47;5024885;28;20031;-77
2022/08/05 03:04:00;;;;;;;11.60;5.05;;;;;;;18.41;79.21;101476.09;5024813;28;20021;-77
2022/08/05 03:06:26;;;;;;;8.93;4.57;;;;;;;18.42;79.47;101478.56;5025295;28;20072;-77
2022/08/05 03:08:52;;;;;;;9.25;4.50;;;;;;;18.35;79.51;101480.19;5030003;28;20385;-77
2022/08/05 03:11:23;;;;;;;8.00;3.95;;;;;;;18.46;79.13;101479.06;5025947;28;20037;-77
2022/08/05 03:13:49;;;;;;;9.45;4.53;;;;;;;18.39;79.40;101467.56;5026117;28;20191;-77
2022/08/05 03:16:15;;;;;;;11.25;4.97;;;;;;;18.48;79.14;101477.94;5025119;28;20076;-77
2022/08/05 03:18:41;;;;;;;10.02;4.47;;;;;;;18.42;79.28;101467.25;5023627;28;20061;-77
2022/08/05 03:21:07;;;;;;;12.63;5.53;;;;;;;18.43;79.01;101464.44;5007098;28;20033;-77
2022/08/05 03:23:33;;;;;;;11.15;5.18;;;;;;;18.28;79.40;101455.53;5032725;28;20062;-77
2022/08/05 03:26:00;;;;;;;8.70;4.63;;;;;;;18.29;79.54;101441.44;5026890;28;20097;-77
2022/08/05 03:28:26;;;;;;;11.00;4.97;;;;;;;18.23;80.01;101452.56;5013146;28;20029;-77
2022/08/05 03:30:52;;;;;;;11.93;5.15;;;;;;;18.29;79.59;101454.56;5021649;28;20044;-77
2022/08/05 03:33:18;;;;;;;12.75;5.47;;;;;;;18.25;79.77;101455.88;5026933;28;20037;-77
2022/08/05 03:35:45;;;;;;;10.82;4.80;;;;;;;18.31;79.96;101449.97;5029604;28;20190;-78
2022/08/05 03:38:11;;;;;;;12.48;4.97;;;;;;;18.24;79.96;101462.13;5026537;28;20499;-77
2022/08/05 03:40:45;;;;;;;11.18;5.03;;;;;;;18.29;79.82;101471.16;5018288;28;20131;-77
2022/08/05 03:43:11;;;;;;;8.32;4.72;;;;;;;18.35;79.38;101472.31;5023852;28;20104;-77
2022/08/05 03:45:36;;;;;;;11.27;4.95;;;;;;;18.17;79.67;101459.28;5023756;28;20025;-78
2022/08/05 03:48:02;;;;;;;10.52;5.00;;;;;;;18.30;79.72;101469.34;5012190;28;20033;-77
2022/08/05 03:50:39;;;;;;;9.57;5.25;;;;;;;18.21;80.61;101475.56;5012840;28;20478;-77
2022/08/05 03:53:12;;;;;;;11.52;5.43;;;;;;;18.17;80.59;101474.22;5015496;28;20124;-77
2022/08/05 03:55:44;;;;;;;9.50;5.35;;;;;;;18.18;80.77;101475.84;5006357;28;20114;-77
2022/08/05 03:58:13;;;;;;;12.60;5.68;;;;;;;18.14;80.78;101469.28;5020387;28;20049;-77
2022/08/05 04:00:41;;;;;;;11.98;5.15;;;;;;;18.20;80.98;101473.91;5021438;28;20108;-77
2022/08/05 04:03:08;;;;;;;11.30;5.32;;;;;;;18.19;80.88;101469.66;5014849;28;20034;-77
2022/08/05 04:05:34;;;;;;;11.50;5.30;;;;;;;18.20;80.96;101464.22;5015320;28;20033;-77
2022/08/05 04:08:06;;;;;;;12.50;5.45;;;;;;;18.18;81.31;101460.09;5018048;28;20042;-77
2022/08/05 04:10:33;;;;;;;11.25;4.75;;;;;;;18.16;80.70;101452.38;5012003;28;20034;-77
2022/08/05 04:12:59;;;;;;;10.18;4.82;;;;;;;18.11;81.29;101448.59;5012125;28;20080;-76
2022/08/05 04:15:26;;;;;;;9.00;4.70;;;;;;;18.10;81.72;101457.47;5012982;28;20105;-77
2022/08/05 04:17:53;;;;;;;10.65;5.00;;;;;;;18.05;81.14;101450.06;5018168;28;20060;-78
2022/08/05 04:20:20;;;;;;;10.93;4.68;;;;;;;17.99;81.12;101448.06;4997780;28;20394;-78
2022/08/05 04:22:45;;;;;;;9.82;5.03;;;;;;;17.89;81.38;101440.34;5010344;28;20061;-76
2022/08/05 04:25:11;;;;;;;10.95;5.15;;;;;;;17.87;81.67;101458.03;5023271;28;20057;-76
2022/08/05 04:27:37;;;;;;;11.63;4.55;;;;;;;17.83;81.89;101451.44;5016662;28;20032;-77
2022/08/05 04:30:03;;;;;;;8.80;4.70;;;;;;;17.83;82.00;101456.69;5017114;28;20021;-77
2022/08/05 04:32:28;;;;;;;9.38;4.47;;;;;;;17.80;82.02;101451.75;5012189;28;20032;-77
2022/08/05 04:34:54;;;;;;;9.07;4.78;;;;;;;17.83;82.05;101466.34;5019521;28;20030;-76
2022/08/05 04:37:19;;;;;;;9.60;4.72;;;;;;;17.86;81.69;101472.13;5016595;28;20104;-76
2022/08/05 04:39:45;;;;;;;10.75;5.20;;;;;;;17.77;82.31;101483.56;5013875;28;20482;-77
2022/08/05 04:42:10;;;;;;;10.93;5.80;;;;;;;17.78;82.52;101495.72;5021390;28;20025;-76
2022/08/05 04:44:35;;;;;;;9.50;5.63;;;;;;;17.71;82.27;101492.00;4999288;28;20060;-77
2022/08/05 04:47:01;;;;;;;9.98;5.32;;;;;;;17.73;82.27;101497.97;5035458;28;20079;-77
2022/08/05 04:49:26;;;;;;;10.50;5.07;;;;;;;17.73;82.52;101497.97;5033656;28;20059;-76
2022/08/05 04:51:52;;;;;;;12.38;5.20;;;;;;;17.73;82.48;101503.22;5023732;28;20021;-77
2022/08/05 04:54:18;;;;;;;9.35;4.82;;;;;;;17.70;82.40;101493.00;5003600;28;20120;-76
2022/08/05 04:56:44;;;;;;;8.70;4.38;;;;;;;17.76;82.39;101498.47;5020594;28;20030;-79
2022/08/05 04:59:09;;;;;;;10.88;4.70;;;;;;;17.62;83.01;101485.09;5038218;28;20044;-77
2022/08/05 05:01:35;;;;;;;9.95;4.90;;;;;;;17.67;83.13;101488.06;5025012;28;20405;-76
2022/08/05 05:04:00;;;;;;;11.43;5.20;;;;;;;17.64;83.18;101493.63;5024440;28;20072;-76
2022/08/05 05:06:26;;;;;;;12.73;4.85;;;;;;;17.62;83.72;101485.09;5017525;28;20025;-76
2022/08/05 05:08:51;;;;;;;9.82;4.70;;;;;;;17.70;83.37;101487.75;5025132;28;20099;-76
2022/08/05 05:11:16;;;;;;;9.63;4.82;;;;;;;17.74;82.99;101499.63;5027860;28;20132;-77
2022/08/05 05:13:42;;;;;;;9.85;5.05;;;;;;;17.72;83.33;101496.31;4998598;28;20477;-77
2022/08/05 05:16:07;;;;;;;10.65;4.93;;;;;;;17.70;83.03;101493.81;5024040;28;20401;-76
2022/08/05 05:18:32;;;;;;;11.13;5.28;;;;;;;17.64;83.36;101496.25;5028649;28;20017;-77
2022/08/05 05:20:58;;;;;;;9.65;5.18;;;;;;;17.80;82.97;101493.75;5026477;28;20021;-77
2022/08/05 05:23:23;;;;;;;9.93;4.80;;;;;;;17.72;83.28;101485.81;5010766;28;20029;-77
2022/08/05 05:25:49;;;;;;;10.40;4.70;;;;;;;17.68;83.34;101492.34;5025037;28;20056;-77
2022/08/05 05:28:14;;;;;;;10.15;4.90;;;;;;;17.70;83.60;101499.06;5034046;28;20024;-77
2022/08/05 05:30:39;;;;;;;10.27;5.10;;;;;;;17.64;83.88;101498.88;5029276;28;20478;-76
2022/08/05 05:33:07;;;;;;;8.95;4.82;;;;;;;17.67;83.76;101503.81;5022194;28;20076;-77
2022/08/05 05:35:33;;;;;;;10.05;5.53;;;;;;;17.70;83.92;101498.25;5005784;28;20419;-77
2022/08/05 05:38:01;;;;;;;9.18;4.97;;;;;;;17.65;83.97;101495.25;5026212;28;20021;-77
2022/08/05 05:40:28;;;;;;;11.00;5.50;;;;;;;17.62;83.91;101490.34;5025554;28;20037;-77
2022/08/05 05:42:54;;;;;;;9.65;4.95;;;;;;;17.66;83.48;101496.91;5029003;28;20079;-77
2022/08/05 05:45:20;;;;;;;9.63;5.10;;;;;;;17.50;84.19;101498.47;5021461;28;20049;-77
2022/08/05 05:47:46;;;;;;;7.35;5.28;;;;;;;17.50;84.76;101508.13;5008211;28;20064;-77
2022/08/05 05:50:14;;;;;;;11.50;5.60;;;;;;;17.46;84.61;101512.84;5023081;28;20500;-77
2022/08/05 05:52:40;;;;;;;11.23;6.10;;;;;;;17.48;84.36;101510.06;5027430;28;20030;-77
2022/08/05 05:55:08;;;;;;;11.90;6.10;;;;;;;17.49;84.10;101520.44;5023306;28;20068;-77
2022/08/05 05:57:34;;;;;;;11.18;6.22;;;;;;;17.49;84.74;101516.94;5024588;28;20135;-77
2022/08/05 05:59:59;;;;;;;10.80;5.75;;;;;;;17.46;84.76;101518.09;5025412;28;20033;-79
2022/08/05 06:02:24;;;;;;;11.55;6.07;;;;;;;17.42;84.61;101510.69;5012817;28;20033;-77
2022/08/05 06:04:50;;;;;;;9.90;5.97;;;;;;;17.52;85.37;101525.34;5010870;28;20438;-78
2022/08/05 06:07:15;;;;;;;12.73;5.95;;;;;;;17.52;85.05;101527.97;5015747;28;20080;-77
2022/08/05 06:09:41;;;;;;;10.25;6.05;;;;;;;17.62;85.81;101527.88;5010703;28;20030;-77
2022/08/05 06:12:07;;;;;;;9.38;6.03;;;;;;;17.57;85.24;101534.56;5015089;28;20072;-77
2022/08/05 06:14:32;;;;;;;12.27;6.40;;;;;;;17.56;85.29;101535.56;5023494;28;20642;-76
2022/08/05 06:16:58;;;;;;;11.52;6.20;;;;;;;17.58;85.14;101531.78;5021804;28;20409;-77
2022/08/05 06:19:24;;;;;;;10.35;6.28;;;;;;;17.72;84.81;101538.28;5014810;28;20048;-77
2022/08/05 06:21:50;;;;;;;9.88;6.30;;;;;;;17.73;85.27;101539.97;5021417;28;20054;-79
2022/08/05 06:24:15;;;;;;;12.93;6.82;;;;;;;17.74;84.94;101536.34;5022381;28;20037;-79
2022/08/05 06:26:41;;;;;;;11.00;5.97;;;;;;;17.78;84.15;101532.44;5022512;28;20059;-79
2022/08/05 06:29:06;;;;;;;9.45;6.07;;;;;;;17.75;84.04;101530.13;5029151;28;20033;-79
2022/08/05 06:31:31;;;;;;;11.10;5.90;;;;;;;17.74;84.20;101542.41;5019429;28;20048;-79
2022/08/05 06:33:57;;;;;;;9.95;5.70;;;;;;;17.79;83.67;101547.22;5024715;28;20029;-79
2022/08/05 06:36:22;;;;;;;10.63;5.55;;;;;;;17.80;83.81;101546.22;5024882;28;20123;-79
2022/08/05 06:38:52;;;;;;;9.93;5.15;;;;;;;17.76;82.92;101540.47;5036327;28;20028;-79
2022/08/05 06:41:18;;;;;;;9.35;5.57;;;;;;;17.85;82.76;101533.47;5026673;28;20107;-79
2022/08/05 06:43:43;;;;;;;10.27;4.90;;;;;;;17.89;82.40;101533.97;5017451;28;20747;-78
2022/08/05 06:46:08;;;;;;;9.95;5.43;;;;;;;17.99;82.01;101546.00;5018051;28;20474;-78
2022/08/05 06:48:35;;;;;;;10.15;5.25;;;;;;;17.99;82.16;101540.75;5023097;28;20048;-78
2022/08/05 06:51:00;;;;;;;12.73;5.47;;;;;;;17.97;82.18;101537.47;5026980;28;20022;-79
2022/08/05 06:53:26;;;;;;;8.07;4.45;;;;;;;18.05;81.93;101536.69;5039076;28;20021;-78
2022/08/05 06:55:51;;;;;;;9.45;5.22;;;;;;;18.09;81.84;101545.06;5037118;28;20056;-79
2022/08/05 06:58:16;;;;;;;9.00;5.00;;;;;;;18.08;81.58;101549.50;5027322;28;20044;-79
2022/08/05 07:00:42;;;;;;;8.73;4.88;;;;;;;18.08;81.42;101548.69;5026867;28;20061;-79
2022/08/05 07:03:07;;;;;;;10.30;5.10;;;;;;;18.22;82.58;101555.97;5027242;28;20453;-79
2022/08/05 07:05:32;;;;;;;9.73;5.10;;;;;;;18.26;81.71;101565.19;5025779;28;20057;-79
2022/08/05 07:07:58;;;;;;;7.90;4.72;;;;;;;18.31;81.29;101562.91;5020713;28;20045;-78
2022/08/05 07:10:24;;;;;;;10.57;5.07;;;;;;;18.30;80.81;101569.97;5022084;28;20056;-78
2022/08/05 07:18:18;;;;;;;7.78;3.70;;;;;;;18.41;78.72;101587.25;5020352;28;20035;-78
2022/08/05 07:20:43;;;;;;;7.70;3.75;;;;;;;18.53;78.88;101590.41;5022113;28;20117;-78
2022/08/05 07:23:08;;;;;;;9.73;4.00;;;;;;;18.49;78.69;101589.91;5023293;28;20049;-78
2022/08/05 07:25:34;;;;;;;8.95;3.72;;;;;;;18.58;78.20;101594.22;5024715;28;20033;-79
2022/08/05 07:27:59;;;;;;;7.30;3.25;;;;;;;18.64;77.59;101605.03;5024387;28;20132;-79
2022/08/05 07:30:24;;;;;;;8.65;3.60;;;;;;;18.61;78.56;101610.63;5036678;28;20029;-78
2022/08/05 07:32:50;;;;;;;7.93;3.45;;;;;;;18.66;77.37;101606.56;5027796;28;20382;-78
2022/08/05 07:35:15;;;;;;;8.75;3.35;;;;;;;18.73;78.02;101617.28;5025757;28;20533;-79
2022/08/05 07:37:40;;;;;;;8.15;3.30;;;;;;;18.73;76.35;101620.72;5014350;28;20454;-80
2022/08/05 07:40:07;;;;;;;6.03;3.25;;;;;;;18.71;75.50;101614.00;5007438;28;20029;-78
2022/08/05 07:42:33;;;;;;;7.75;2.80;;;;;;;18.74;75.06;101624.16;5025547;28;20071;-79
2022/08/05 07:44:59;;;;;;;7.95;2.92;;;;;;;18.80;76.15;101628.78;5025827;28;20400;-79
2022/08/05 07:47:24;;;;;;;7.18;3.03;;;;;;;18.87;76.45;101624.56;5030233;28;20032;-79
2022/08/05 07:49:53;;;;;;;7.32;2.50;;;;;;;18.92;76.13;101613.53;5033591;28;20432;-78
2022/08/05 07:52:19;;;;;;;;;;;;;;;19.11;76.28;101631.69;5031380;28;20029;-79
2022/08/05 07:54:44;;;;;;;7.60;2.53;;;;;;;18.98;73.24;101621.63;5015893;28;19916;-78
2022/08/05 07:57:10;;;;;;;7.68;2.50;;;;;;;19.05;72.42;101606.84;5003785;28;20021;-78
2022/08/05 07:59:35;;;;;;;7.18;2.70;;;;;;;19.19;74.34;101623.78;5024932;28;20231;-78
2022/08/05 08:02:01;;;;;;;5.95;2.38;;;;;;;19.28;73.06;101622.84;5027192;28;20112;-78
2022/08/05 08:04:27;;;;;;;6.32;2.47;;;;;;;19.22;72.52;101622.66;5014647;28;20035;-78
2022/08/05 08:06:53;;;;;;;6.22;2.72;;;;;;;19.38;72.97;101617.41;5016410;28;20053;-79
2022/08/05 08:09:19;;;;;;;5.43;2.53;;;;;;;19.49;74.04;101613.63;5026604;28;20041;-79
2022/08/05 08:11:44;;;;;;;6.47;2.70;;;;;;;19.63;73.55;101619.09;5013432;28;20120;-79
2022/08/05 08:14:09;;;;;;;9.25;3.13;;;;;;;19.73;72.26;101631.28;5025921;28;20465;-78
2022/08/05 08:16:35;;;;;;;6.55;2.80;;;;;;;19.73;71.97;101633.91;5024869;28;20049;-79
2022/08/05 08:19:00;;;;;;;7.55;2.95;;;;;;;19.76;72.15;101633.56;5007162;28;20053;-78
2022/08/05 08:21:25;;;;;;;9.50;3.25;;;;;;;19.68;71.16;101641.47;5013761;28;20470;-78
2022/08/05 08:23:51;;;;;;;6.00;2.95;;;;;;;19.59;70.34;101638.81;5017774;28;20493;-79
2022/08/05 08:26:16;;;;;;;7.38;2.92;;;;;;;19.53;70.40;101652.59;5018476;28;20037;-78
2022/08/05 08:28:42;;;;;;;7.43;2.63;;;;;;;19.49;70.74;101650.47;5002142;28;20480;-77
2022/08/05 08:31:07;;;;;;;5.90;3.03;;;;;;;19.46;70.62;101656.88;5002978;28;20029;-78
2022/08/05 08:33:33;;;;;;;5.68;2.72;;;;;;;19.41;70.86;101656.53;5011666;28;20060;-78
2022/08/05 08:35:59;;;;;;;6.57;2.42;;;;;;;19.51;71.94;101648.50;5015080;28;20056;-78
2022/08/05 08:38:24;;;;;;;5.80;2.60;;;;;;;19.56;72.46;101656.75;5015214;28;20455;-78
2022/08/05 08:40:50;;;;;;;4.88;2.10;;;;;;;19.55;70.44;101640.09;5024036;28;20071;-78
2022/08/05 08:43:18;;;;;;;5.72;2.50;;;;;;;19.56;69.96;101657.56;5014859;28;20100;-77
2022/08/05 08:45:45;;;;;;;8.05;2.50;;;;;;;19.70;71.13;101656.09;5005814;28;20029;-78
2022/08/05 08:48:14;;;;;;;5.20;2.35;;;;;;;19.71;67.97;101670.09;5013207;28;20518;-78
2022/08/05 08:50:41;;;;;;;6.63;1.67;;;;;;;19.55;65.40;101655.88;5021077;28;20112;-78
2022/08/05 08:53:09;;;;;;;4.00;1.53;;;;;;;19.73;66.90;101668.13;5025630;28;20034;-78
2022/08/05 08:55:35;;;;;;;4.13;1.60;;;;;;;19.72;66.81;101676.97;5028549;28;20021;-78
2022/08/05 08:58:01;;;;;;;5.65;1.90;;;;;;;19.67;66.48;101684.53;5028998;28;20283;-77
2022/08/05 09:00:27;;;;;;;5.53;1.70;;;;;;;19.62;66.25;101683.25;5016549;28;20349;-78
2022/08/05 09:02:53;;;;;;;4.70;1.67;;;;;;;19.55;65.81;101692.72;5023542;28;20017;-78
2022/08/05 09:05:19;;;;;;;3.97;1.48;;;;;;;19.51;63.18;101696.69;5024265;28;20501;-78
2022/08/05 09:07:45;;;;;;;3.15;1.27;;;;;;;19.55;63.43;101698.00;5023135;28;20064;-78
2022/08/05 09:10:11;;;;;;;2.53;1.05;;;;;;;19.57;59.75;101696.03;5031525;28;20040;-78
2022/08/05 09:12:36;;;;;;;4.53;1.00;;;;;;;19.67;59.93;101697.72;5026368;28;20056;-77
2022/08/05 09:15:04;;;;;;;4.53;1.25;;;;;;;19.70;59.63;101697.41;5022624;28;20033;-78
2022/08/05 09:17:29;;;;;;;3.75;1.23;;;;;;;19.76;61.28;101694.09;5011644;28;20304;-78
2022/08/05 09:19:55;;;;;;;3.55;1.33;;;;;;;19.69;61.05;101698.38;5027954;28;20040;-78
2022/08/05 09:22:20;;;;;;;1.80;1.00;;;;;;;19.78;60.49;101707.91;5030731;28;20033;-77
2022/08/05 09:25:02;;;;;;;2.17;1.00;;;;;;;19.81;59.35;101703.16;5026399;28;20045;-78
2022/08/05 09:27:38;;;;;;;5.00;1.15;;;;;;;20.03;59.01;101711.38;5020943;28;20446;-77
2022/08/05 09:30:05;;;;;;;4.30;1.00;;;;;;;20.08;55.96;101707.28;5017762;28;20048;-77
2022/08/05 09:32:36;;;;;;;2.28;0.90;;;;;;;20.22;56.66;101715.47;5027158;28;20025;-78
2022/08/05 09:35:10;;;;;;;3.17;0.88;;;;;;;20.34;55.00;101724.69;5027987;28;20034;-76
2022/08/05 09:37:35;;;;;;;1.67;0.70;;;;;;;20.35;52.19;101716.59;5022452;28;20048;-77
2022/08/05 09:40:00;;;;;;;1.55;0.75;;;;;;;20.47;52.29;101719.72;5022434;28;20061;-77
2022/08/05 09:42:38;;;;;;;1.60;0.73;;;;;;;20.59;53.39;101723.69;5018097;28;20033;-77
2022/08/05 09:45:07;;;;;;;3.37;0.80;;;;;;;20.71;52.98;101726.78;5016611;28;20056;-77
2022/08/05 09:47:33;;;;;;;2.42;0.77;;;;;;;20.81;52.09;101726.56;5001721;28;20588;-77
2022/08/05 09:49:59;;;;;;;4.18;0.80;;;;;;;20.91;52.09;101721.91;5002927;28;20074;-77
2022/08/05 09:52:29;;;;;;;4.07;1.00;;;;;;;21.00;50.12;101726.16;5021563;28;20117;-78
2022/08/05 09:55:06;;;;;;;1.58;0.70;;;;;;;21.12;51.00;101730.06;5027010;28;20402;-78
2022/08/05 09:57:39;;;;;;;3.85;0.85;;;;;;;21.07;48.82;101726.31;5025690;28;20436;-78
2022/08/05 10:00:11;;;;;;;2.35;0.68;;;;;;;21.23;49.06;101730.69;5025388;28;20029;-77
2022/08/05 10:02:42;;;;;;;1.48;0.70;;;;;;;21.24;47.48;101737.59;5018147;28;20041;-77
2022/08/05 10:05:10;;;;;;;2.10;0.60;;;;;;;21.29;46.83;101735.28;5009112;28;20069;-78
2022/08/05 10:08:05;;;;;;;3.45;0.70;;;;;;;21.48;48.61;101734.84;5012093;28;20050;-77
2022/08/05 10:10:45;;;;;;;2.53;0.90;;;;;;;21.53;46.04;101743.06;5007882;28;20374;-78
2022/08/05 10:13:11;;;;;;;2.20;0.65;;;;;;;21.54;44.40;101744.69;5001646;28;20033;-77
2022/08/05 10:15:40;;;;;;;1.95;0.70;;;;;;;21.65;45.16;101749.59;5023987;28;20059;-78
2022/08/05 10:18:18;;;;;;;2.67;0.80;;;;;;;21.64;44.62;101753.22;5038752;28;20035;-77
2022/08/05 10:20:45;;;;;;;;;;;;;;;21.73;42.46;101749.53;5021278;28;20461;-78
2022/08/05 10:23:13;;;;;;;3.00;0.85;;;;;;;21.53;44.03;101743.06;5022260;28;19913;-78
2022/08/05 10:28:05;;;;;;;3.40;0.70;;;;;;;21.43;44.72;101751.19;5054250;22;20471;-78
2022/08/05 10:30:30;;;;;;;2.10;0.80;;;;;;;21.53;46.58;101753.63;5031244;28;20033;-78
2022/08/05 10:32:57;;;;;;;1.60;0.57;;;;;;;21.36;43.99;101752.06;5022086;28;20361;-79
2022/08/05 10:35:23;;;;;;;1.80;0.60;;;;;;;21.38;45.75;101756.16;5039017;28;20036;-78
2022/08/05 10:37:49;;;;;;;2.13;0.70;;;;;;;21.36;45.77;101752.06;5037929;28;20025;-79
2022/08/05 10:40:26;;;;;;;3.10;0.82;;;;;;;21.36;46.79;101752.06;5029826;28;20033;-79
2022/08/05 10:42:54;;;;;;;1.20;0.70;;;;;;;21.42;47.10;101761.94;5036691;28;20044;-78
2022/08/05 10:45:27;;;;;;;2.03;0.82;;;;;;;21.44;46.87;101762.56;5035855;28;20064;-78
2022/08/05 10:47:53;;;;;;;2.92;0.80;;;;;;;21.53;48.77;101761.53;5038279;28;20036;-78
2022/08/05 10:50:19;;;;;;;2.53;0.80;;;;;;;21.42;47.89;101772.50;5019678;28;20138;-78
2022/08/05 10:52:56;;;;;;;2.45;0.88;;;;;;;21.34;47.52;101769.91;5035517;28;20571;-78
2022/08/05 10:55:23;;;;;;;1.50;0.70;;;;;;;21.25;46.77;101784.09;5038062;28;20047;-78
2022/08/05 10:58:06;;;;;;;3.03;0.70;;;;;;;21.32;47.66;101787.72;5034780;28;20028;-79
2022/08/05 11:00:31;;;;;;;2.30;0.90;;;;;;;21.37;47.39;101785.38;5026606;28;20031;-78
2022/08/05 11:03:03;;;;;;;1.88;0.70;;;;;;;21.41;46.11;101798.06;5036341;28;20032;-78
2022/08/05 11:05:29;;;;;;;2.67;0.70;;;;;;;21.46;45.59;101797.56;5032647;28;20485;-78
2022/08/05 11:07:59;;;;;;;2.95;0.82;;;;;;;21.47;46.39;101786.81;5037867;28;20025;-79
2022/08/05 11:11:07;;;;;;;1.88;0.88;;;;;;;21.47;46.32;101802.66;5037254;28;20354;-78
2022/08/05 11:13:42;;;;;;;1.75;0.70;;;;;;;21.49;45.68;101799.84;5008335;28;20436;-77
2022/08/05 11:16:29;;;;;;;2.67;0.80;;;;;;;21.44;46.37;101812.72;5039992;28;20031;-78
2022/08/05 11:19:29;;;;;;;4.50;0.80;;;;;;;21.38;46.06;101808.13;5043072;28;20475;-77
2022/08/05 11:22:15;;;;;;;3.50;0.80;;;;;;;21.32;46.70;101819.38;5023612;28;20029;-79
2022/08/05 11:24:43;;;;;;;2.78;0.85;;;;;;;21.27;46.54;101817.22;5037498;28;20033;-78
2022/08/05 11:27:31;;;;;;;3.65;1.00;;;;;;;21.28;47.06;101823.34;5021066;28;20033;-79
2022/08/05 11:29:59;;;;;;;;;;;;;;;21.41;48.13;101818.38;5036950;28;20067;-79
2022/08/05 11:32:26;;;;;;;;;;;;;;;21.54;48.72;101829.19;5035376;28;20373;-79
2022/08/05 11:34:52;;;;;;;3.58;0.82;;;;;;;21.48;46.55;101827.22;5021068;28;19928;-79
2022/08/05 11:37:40;;;;;;;2.78;0.70;;;;;;;21.48;46.68;101835.16;5018877;28;20021;-79